Time;durP1;ratioP1;P1;durP2;ratioP2;P2;SDS_P1;SDS_P2;PMS_P1;PMS_P2;Temp;Humidity;BMP_temperature;BMP_pressure;BME280_temperature;BME280_humidity;BME280_pressure;Samples;Min_cycle;Max_cycle;Signal;HPM_P1;HPM_P2
2024/02/15 00:02:22;;;;;;;0.30;0.30;;;;;;;;;;5032058;28;20218;-77
2024/02/15 00:04:49;;;;;;;0.20;0.20;;;;;;;;;;5059703;28;20223;-80
2024/02/15 00:07:15;;;;;;;0.40;0.40;;;;;;;;;;5060697;28;20227;-77
2024/02/15 00:09:45;;;;;;;1.57;1.47;;;;;;;;;;5024152;28;20793;-79
2024/02/15 00:12:12;;;;;;;0.30;0.30;;;;;;;;;;5040733;28;20231;-77
2024/02/15 00:14:39;;;;;;;0.30;0.30;;;;;;;;;;5023192;28;20237;-77
2024/02/15 00:17:05;;;;;;;0.20;0.20;;;;;;;;;;5023085;28;20279;-78
2024/02/15 00:19:33;;;;;;;0.40;0.40;;;;;;;;;;5022496;28;20224;-77
2024/02/15 00:21:59;;;;;;;0.30;0.30;;;;;;;;;;5023775;28;20239;-76
2024/02/15 00:24:25;;;;;;;0.30;0.30;;;;;;;;;;5041822;28;20303;-77
2024/02/15 00:26:53;;;;;;;0.30;0.30;;;;;;;;;;5038907;28;20235;-77
2024/02/15 00:29:20;;;;;;;1.33;1.23;;;;;;;;;;5023271;28;20241;-77
2024/02/15 00:31:47;;;;;;;0.40;0.40;;;;;;;;;;5040448;28;20711;-77
2024/02/15 00:34:16;;;;;;;0.20;0.20;;;;;;;;;;5039838;28;20240;-77
2024/02/15 00:36:44;;;;;;;0.30;0.30;;;;;;;;;;5040364;28;20715;-77
2024/02/15 00:39:11;;;;;;;0.20;0.20;;;;;;;;;;5040784;28;20254;-77
2024/02/15 00:41:41;;;;;;;0.60;0.60;;;;;;;;;;5040484;28;20645;-77
2024/02/15 00:44:10;;;;;;;0.30;0.30;;;;;;;;;;5035856;28;20536;-77
2024/02/15 00:46:37;;;;;;;0.30;0.30;;;;;;;;;;5022173;28;20243;-77
2024/02/15 00:49:07;;;;;;;0.30;0.30;;;;;;;;;;5040400;28;20731;-77
2024/02/15 00:51:35;;;;;;;0.30;0.30;;;;;;;;;;5039779;28;20223;-77
2024/02/15 00:54:03;;;;;;;0.30;0.30;;;;;;;;;;5029686;28;20227;-77
2024/02/15 00:56:30;;;;;;;0.27;0.27;;;;;;;;;;5022694;28;20235;-77
2024/02/15 00:58:58;;;;;;;0.30;0.30;;;;;;;;;;5042390;28;20307;-78
2024/02/15 01:01:25;;;;;;;1.10;0.93;;;;;;;;;;5041984;28;20223;-77
2024/02/15 01:03:52;;;;;;;1.03;1.03;;;;;;;;;;5039039;28;20255;-77
2024/02/15 01:06:18;;;;;;;0.93;0.93;;;;;;;;;;5021868;28;20224;-78
2024/02/15 01:08:45;;;;;;;0.30;0.30;;;;;;;;;;5040015;28;20235;-77
2024/02/15 01:11:13;;;;;;;0.30;0.30;;;;;;;;;;5039216;28;20278;-77
2024/02/15 01:13:40;;;;;;;1.60;1.50;;;;;;;;;;5039437;28;20228;-77
2024/02/15 01:16:08;;;;;;;0.63;0.63;;;;;;;;;;5039423;28;20228;-77
2024/02/15 01:18:34;;;;;;;0.30;0.30;;;;;;;;;;5022707;28;20597;-77
2024/02/15 01:21:01;;;;;;;1.27;1.17;;;;;;;;;;5039772;28;20292;-77
2024/02/15 01:23:27;;;;;;;0.30;0.30;;;;;;;;;;5040704;28;20223;-77
2024/02/15 01:25:55;;;;;;;0.30;0.30;;;;;;;;;;5044404;28;20718;-77
2024/02/15 01:28:22;;;;;;;0.30;0.30;;;;;;;;;;5063543;28;20770;-77
2024/02/15 01:30:48;;;;;;;0.37;0.37;;;;;;;;;;5063529;28;20227;-77
2024/02/15 01:33:14;;;;;;;0.30;0.30;;;;;;;;;;5062282;28;20218;-77
2024/02/15 01:35:41;;;;;;;0.20;0.20;;;;;;;;;;5064030;28;20607;-77
2024/02/15 01:38:07;;;;;;;0.30;0.30;;;;;;;;;;5063952;28;20230;-77
2024/02/15 01:40:35;;;;;;;0.30;0.30;;;;;;;;;;5049062;28;20242;-77
2024/02/15 01:43:02;;;;;;;0.83;0.83;;;;;;;;;;5065069;28;20309;-77
2024/02/15 01:45:28;;;;;;;0.67;0.67;;;;;;;;;;5050899;28;20234;-77
2024/02/15 01:47:55;;;;;;;0.47;0.47;;;;;;;;;;5048612;28;20223;-78
2024/02/15 01:50:24;;;;;;;0.30;0.30;;;;;;;;;;5049528;28;20225;-77
2024/02/15 01:52:54;;;;;;;0.30;0.30;;;;;;;;;;5056414;28;20994;-77
2024/02/15 01:55:21;;;;;;;0.30;0.30;;;;;;;;;;5069837;28;20229;-77
2024/02/15 01:57:48;;;;;;;0.30;0.30;;;;;;;;;;5069505;28;20232;-77
2024/02/15 02:00:19;;;;;;;0.50;0.50;;;;;;;;;;5051906;28;20222;-77
2024/02/15 02:02:47;;;;;;;0.20;0.20;;;;;;;;;;5064693;28;20230;-78
2024/02/15 02:05:14;;;;;;;0.70;0.70;;;;;;;;;;5052108;28;20245;-77
2024/02/15 02:07:41;;;;;;;0.30;0.30;;;;;;;;;;5064119;28;20218;-77
2024/02/15 02:10:09;;;;;;;0.30;0.30;;;;;;;;;;5065536;28;20724;-77
2024/02/15 02:12:36;;;;;;;0.30;0.30;;;;;;;;;;5071266;28;20222;-77
2024/02/15 02:15:02;;;;;;;0.20;0.20;;;;;;;;;;5065204;28;20220;-77
2024/02/15 02:17:29;;;;;;;0.20;0.20;;;;;;;;;;5065203;28;20309;-77
2024/02/15 02:19:57;;;;;;;0.30;0.30;;;;;;;;;;5051766;28;20234;-77
2024/02/15 02:22:23;;;;;;;0.40;0.40;;;;;;;;;;5056871;28;20238;-78
2024/02/15 02:25:06;;;;;;;0.30;0.30;;;;;;;;;;5035744;28;20227;-78
2024/02/15 02:27:33;;;;;;;0.30;0.30;;;;;;;;;;5043974;28;20226;-77
2024/02/15 02:30:00;;;;;;;0.30;0.30;;;;;;;;;;5045148;28;20231;-77
2024/02/15 02:32:27;;;;;;;0.43;0.43;;;;;;;;;;5044888;28;21035;-78
2024/02/15 02:34:57;;;;;;;0.30;0.30;;;;;;;;;;5056879;28;20230;-77
2024/02/15 02:37:24;;;;;;;0.30;0.30;;;;;;;;;;5064453;28;20230;-77
2024/02/15 02:39:51;;;;;;;0.30;0.30;;;;;;;;;;5064289;28;20237;-78
2024/02/15 02:42:17;;;;;;;0.30;0.30;;;;;;;;;;5046048;28;20639;-77
2024/02/15 02:44:44;;;;;;;0.30;0.30;;;;;;;;;;5043782;28;20870;-77
2024/02/15 02:47:11;;;;;;;0.30;0.30;;;;;;;;;;5043342;28;20232;-78
2024/02/15 02:49:38;;;;;;;0.20;0.20;;;;;;;;;;5043431;28;20322;-77
2024/02/15 02:52:05;;;;;;;0.20;0.20;;;;;;;;;;5026344;28;20293;-77
2024/02/15 02:54:33;;;;;;;0.30;0.30;;;;;;;;;;5043734;28;20617;-77
2024/02/15 02:57:00;;;;;;;1.10;0.93;;;;;;;;;;5042325;28;20266;-78
2024/02/15 02:59:26;;;;;;;0.23;0.23;;;;;;;;;;5043573;28;20228;-77
2024/02/15 03:01:56;;;;;;;0.40;0.40;;;;;;;;;;5043127;28;20235;-77
2024/02/15 03:04:23;;;;;;;0.20;0.20;;;;;;;;;;5026287;28;20227;-77
2024/02/15 03:06:49;;;;;;;0.30;0.30;;;;;;;;;;5044214;28;20289;-77
2024/02/15 03:09:16;;;;;;;0.30;0.30;;;;;;;;;;5044304;28;20220;-77
2024/02/15 03:11:43;;;;;;;0.73;0.73;;;;;;;;;;5043390;28;20724;-78
2024/02/15 03:14:11;;;;;;;0.30;0.30;;;;;;;;;;5024840;28;20258;-77
2024/02/15 03:16:38;;;;;;;0.30;0.30;;;;;;;;;;5042543;28;20232;-77
2024/02/15 03:19:04;;;;;;;0.20;0.20;;;;;;;;;;5024106;28;20624;-77
2024/02/15 03:21:31;;;;;;;0.30;0.30;;;;;;;;;;5041886;28;20255;-77
2024/02/15 03:23:58;;;;;;;0.57;0.57;;;;;;;;;;5022330;28;20892;-77
2024/02/15 03:26:38;;;;;;;0.30;0.30;;;;;;;;;;5041946;28;20595;-77
2024/02/15 03:29:04;;;;;;;0.20;0.20;;;;;;;;;;5041170;28;20227;-77
2024/02/15 03:31:32;;;;;;;0.30;0.30;;;;;;;;;;5040770;28;20234;-77
2024/02/15 03:33:59;;;;;;;0.57;0.57;;;;;;;;;;5040544;28;20708;-77
2024/02/15 03:36:25;;;;;;;0.50;0.50;;;;;;;;;;5041370;28;20246;-77
2024/02/15 03:38:53;;;;;;;0.30;0.30;;;;;;;;;;5040596;28;20224;-77
2024/02/15 03:41:20;;;;;;;0.20;0.20;;;;;;;;;;5040300;28;21104;-77
2024/02/15 03:43:47;;;;;;;0.30;0.30;;;;;;;;;;5039568;28;20231;-77
2024/02/15 03:46:14;;;;;;;0.23;0.23;;;;;;;;;;5028362;28;20223;-77
2024/02/15 03:48:45;;;;;;;0.30;0.30;;;;;;;;;;5039242;28;20225;-77
2024/02/15 03:51:18;;;;;;;0.30;0.30;;;;;;;;;;5040838;28;20226;-77
2024/02/15 03:53:45;;;;;;;0.33;0.33;;;;;;;;;;5027321;28;20265;-77
2024/02/15 03:56:12;;;;;;;0.30;0.30;;;;;;;;;;5040482;28;20234;-77
2024/02/15 03:58:39;;;;;;;0.30;0.30;;;;;;;;;;5041497;28;20231;-77
2024/02/15 04:01:06;;;;;;;0.30;0.30;;;;;;;;;;5040765;28;20244;-77
2024/02/15 04:03:33;;;;;;;0.30;0.30;;;;;;;;;;5039693;28;20526;-77
2024/02/15 04:06:01;;;;;;;0.20;0.20;;;;;;;;;;5041863;28;20235;-77
2024/02/15 04:08:28;;;;;;;0.30;0.30;;;;;;;;;;5038459;28;20223;-77
2024/02/15 04:10:57;;;;;;;0.30;0.30;;;;;;;;;;5024295;28;20230;-77
2024/02/15 04:13:24;;;;;;;0.87;0.80;;;;;;;;;;5039996;28;20250;-77
2024/02/15 04:15:52;;;;;;;0.40;0.40;;;;;;;;;;5039667;28;20235;-77
2024/02/15 04:18:19;;;;;;;0.50;0.50;;;;;;;;;;5040323;28;20223;-77
2024/02/15 04:20:46;;;;;;;0.30;0.30;;;;;;;;;;5021792;28;20592;-77
2024/02/15 04:23:13;;;;;;;0.30;0.30;;;;;;;;;;5027849;28;20322;-77
2024/02/15 04:25:40;;;;;;;0.30;0.30;;;;;;;;;;5024525;28;20234;-77
2024/02/15 04:28:08;;;;;;;0.37;0.37;;;;;;;;;;5043706;28;20226;-77
2024/02/15 04:30:38;;;;;;;0.20;0.20;;;;;;;;;;5043332;28;20326;-77
2024/02/15 04:33:08;;;;;;;2.43;0.63;;;;;;;;;;5028376;28;20219;-77
2024/02/15 04:35:35;;;;;;;0.30;0.30;;;;;;;;;;5041129;28;20282;-79
2024/02/15 04:38:04;;;;;;;0.30;0.30;;;;;;;;;;5028475;28;20219;-77
2024/02/15 04:40:30;;;;;;;0.50;0.50;;;;;;;;;;5042268;28;20223;-77
2024/02/15 04:42:58;;;;;;;1.17;0.73;;;;;;;;;;5025484;28;20622;-77
2024/02/15 04:45:25;;;;;;;1.10;1.03;;;;;;;;;;5042557;28;20226;-77
2024/02/15 04:47:53;;;;;;;1.50;0.90;;;;;;;;;;5042538;28;20314;-77
2024/02/15 04:50:20;;;;;;;0.30;0.30;;;;;;;;;;5042151;28;20223;-77
2024/02/15 04:52:48;;;;;;;0.30;0.30;;;;;;;;;;5042830;28;20281;-77
2024/02/15 04:55:15;;;;;;;0.30;0.30;;;;;;;;;;5042564;28;20234;-77
2024/02/15 04:57:42;;;;;;;0.20;0.20;;;;;;;;;;5024589;28;20242;-77
2024/02/15 05:00:11;;;;;;;0.83;0.83;;;;;;;;;;5026034;28;20234;-77
2024/02/15 05:02:40;;;;;;;0.30;0.30;;;;;;;;;;5028614;28;20230;-77
2024/02/15 05:05:09;;;;;;;0.83;0.83;;;;;;;;;;5045081;28;20537;-77
2024/02/15 05:07:39;;;;;;;0.40;0.40;;;;;;;;;;5027077;28;20254;-77
2024/02/15 05:10:07;;;;;;;0.60;0.60;;;;;;;;;;5027889;28;20310;-77
2024/02/15 05:12:33;;;;;;;0.47;0.47;;;;;;;;;;5027590;28;20222;-77
2024/02/15 05:15:00;;;;;;;0.20;0.20;;;;;;;;;;5044660;28;20474;-77
2024/02/15 05:17:29;;;;;;;0.30;0.30;;;;;;;;;;5046538;28;20228;-77
2024/02/15 05:19:58;;;;;;;0.30;0.30;;;;;;;;;;5065630;28;20227;-77
2024/02/15 05:22:28;;;;;;;0.30;0.30;;;;;;;;;;5049105;28;20221;-78
2024/02/15 05:24:55;;;;;;;0.30;0.30;;;;;;;;;;5066866;28;20309;-77
2024/02/15 05:27:23;;;;;;;0.23;0.23;;;;;;;;;;5065727;28;20226;-78
2024/02/15 05:29:52;;;;;;;0.50;0.50;;;;;;;;;;5053597;28;20593;-77
2024/02/15 05:32:20;;;;;;;0.37;0.37;;;;;;;;;;5051624;28;20243;-77
2024/02/15 05:34:47;;;;;;;0.30;0.30;;;;;;;;;;5066153;28;20223;-77
2024/02/15 05:37:15;;;;;;;0.30;0.30;;;;;;;;;;5065755;28;20687;-77
2024/02/15 05:39:42;;;;;;;0.37;0.37;;;;;;;;;;5065469;28;20239;-77
2024/02/15 05:42:10;;;;;;;0.33;0.33;;;;;;;;;;5065494;28;20223;-77
2024/02/15 05:44:36;;;;;;;0.30;0.30;;;;;;;;;;5060786;28;20223;-77
2024/02/15 05:47:04;;;;;;;1.70;1.60;;;;;;;;;;5044450;28;20222;-77
2024/02/15 05:49:30;;;;;;;0.30;0.30;;;;;;;;;;5062665;28;20225;-77
2024/02/15 05:51:56;;;;;;;0.30;0.30;;;;;;;;;;5065778;28;20246;-76
2024/02/15 05:54:23;;;;;;;0.23;0.23;;;;;;;;;;5062843;28;20234;-77
2024/02/15 05:56:51;;;;;;;0.30;0.30;;;;;;;;;;5063129;28;20232;-77
2024/02/15 05:59:20;;;;;;;0.20;0.20;;;;;;;;;;5063543;28;20245;-77
2024/02/15 06:01:49;;;;;;;0.33;0.33;;;;;;;;;;5046987;28;20668;-77
2024/02/15 06:04:16;;;;;;;0.30;0.30;;;;;;;;;;5052418;28;20261;-77
2024/02/15 06:06:43;;;;;;;1.23;1.17;;;;;;;;;;5062844;28;20226;-76
2024/02/15 06:09:10;;;;;;;0.30;0.30;;;;;;;;;;5049238;28;20726;-76
2024/02/15 06:11:38;;;;;;;0.30;0.30;;;;;;;;;;5062574;28;20246;-77
2024/02/15 06:14:06;;;;;;;0.83;0.63;;;;;;;;;;5062171;28;20283;-78
2024/02/15 06:16:34;;;;;;;0.30;0.30;;;;;;;;;;5052620;28;20226;-76
2024/02/15 06:19:00;;;;;;;0.30;0.30;;;;;;;;;;5062920;28;20226;-77
2024/02/15 06:21:28;;;;;;;0.30;0.30;;;;;;;;;;5050956;28;20230;-77
2024/02/15 06:23:55;;;;;;;0.30;0.30;;;;;;;;;;5041300;28;20278;-77
2024/02/15 06:26:22;;;;;;;0.40;0.40;;;;;;;;;;5050807;28;20658;-77
2024/02/15 06:39:53;;;;;;;0.40;0.40;;;;;;;;;;5064662;28;20226;-76
2024/02/15 06:42:19;;;;;;;0.30;0.30;;;;;;;;;;5063974;28;20803;-77
2024/02/15 06:44:48;;;;;;;0.50;0.50;;;;;;;;;;5062995;28;20226;-77
2024/02/15 06:47:17;;;;;;;0.30;0.30;;;;;;;;;;5062305;28;20300;-76
2024/02/15 06:49:45;;;;;;;0.20;0.20;;;;;;;;;;5051274;28;20226;-77
2024/02/15 06:52:13;;;;;;;0.30;0.30;;;;;;;;;;5061942;28;20728;-77
2024/02/15 06:54:40;;;;;;;0.30;0.30;;;;;;;;;;5049125;28;20647;-77
2024/02/15 06:57:07;;;;;;;0.30;0.30;;;;;;;;;;5044892;28;20235;-77
2024/02/15 06:59:34;;;;;;;0.30;0.30;;;;;;;;;;5048275;28;20597;-77
2024/02/15 07:02:04;;;;;;;0.30;0.30;;;;;;;;;;5062337;28;20665;-77
2024/02/15 07:04:32;;;;;;;0.30;0.30;;;;;;;;;;5060713;28;20302;-77
2024/02/15 07:07:01;;;;;;;0.30;0.30;;;;;;;;;;5061300;28;20228;-78
2024/02/15 07:09:28;;;;;;;0.60;0.60;;;;;;;;;;5061096;28;20302;-77
2024/02/15 07:11:55;;;;;;;0.30;0.30;;;;;;;;;;5042833;28;20227;-77
2024/02/15 07:14:21;;;;;;;0.23;0.23;;;;;;;;;;5061313;28;20288;-77
2024/02/15 07:16:49;;;;;;;0.40;0.40;;;;;;;;;;5045914;28;20227;-77
2024/02/15 07:19:16;;;;;;;0.40;0.40;;;;;;;;;;5051907;28;20715;-76
2024/02/15 07:21:44;;;;;;;0.20;0.20;;;;;;;;;;5061730;28;20747;-76
2024/02/15 07:24:10;;;;;;;0.30;0.30;;;;;;;;;;5052944;28;20310;-77
2024/02/15 07:26:36;;;;;;;0.30;0.30;;;;;;;;;;5063974;28;20257;-77
2024/02/15 07:29:07;;;;;;;0.30;0.30;;;;;;;;;;5062771;28;20302;-77
2024/02/15 07:31:35;;;;;;;0.30;0.30;;;;;;;;;;5062686;28;20223;-77
2024/02/15 07:34:03;;;;;;;0.67;0.67;;;;;;;;;;5047983;28;20257;-77
2024/02/15 07:36:30;;;;;;;0.77;0.77;;;;;;;;;;5063493;28;20257;-78
2024/02/15 07:39:00;;;;;;;0.30;0.30;;;;;;;;;;5062929;28;20254;-77
2024/02/15 07:41:29;;;;;;;0.30;0.30;;;;;;;;;;5063840;28;20699;-77
2024/02/15 07:43:55;;;;;;;0.30;0.30;;;;;;;;;;5049635;28;20313;-77
2024/02/15 07:46:24;;;;;;;0.30;0.30;;;;;;;;;;5063108;28;20230;-77
2024/02/15 07:48:50;;;;;;;0.30;0.30;;;;;;;;;;5044604;28;20742;-77
2024/02/15 07:51:18;;;;;;;0.60;0.60;;;;;;;;;;5058689;28;20222;-77
2024/02/15 07:53:50;;;;;;;0.80;0.80;;;;;;;;;;5046204;28;20604;-79
2024/02/15 07:56:17;;;;;;;0.43;0.43;;;;;;;;;;5061944;28;20718;-77
2024/02/15 07:58:51;;;;;;;0.30;0.30;;;;;;;;;;5060084;28;20253;-77
2024/02/15 08:01:23;;;;;;;0.23;0.23;;;;;;;;;;5052237;28;20222;-77
2024/02/15 08:03:52;;;;;;;0.30;0.30;;;;;;;;;;5031720;28;20301;-77
2024/02/15 08:06:20;;;;;;;0.30;0.30;;;;;;;;;;5058332;28;20231;-77
2024/02/15 08:08:47;;;;;;;0.30;0.30;;;;;;;;;;5060854;28;20231;-77
2024/02/15 08:11:15;;;;;;;0.20;0.20;;;;;;;;;;5074633;28;20302;-78
2024/02/15 08:13:45;;;;;;;0.30;0.30;;;;;;;;;;5042349;28;20223;-77
2024/02/15 08:16:15;;;;;;;0.30;0.30;;;;;;;;;;5040162;28;20224;-76
2024/02/15 08:18:46;;;;;;;0.73;0.73;;;;;;;;;;5042785;28;20318;-77
2024/02/15 08:21:14;;;;;;;0.30;0.30;;;;;;;;;;5025014;28;20314;-77
2024/02/15 08:23:41;;;;;;;0.30;0.30;;;;;;;;;;5042307;28;20269;-78
2024/02/15 08:26:10;;;;;;;0.30;0.30;;;;;;;;;;5025072;28;20696;-78
2024/02/15 08:28:38;;;;;;;0.40;0.40;;;;;;;;;;5042107;28;20238;-79
2024/02/15 08:31:04;;;;;;;0.77;0.77;;;;;;;;;;5042421;28;20323;-80
2024/02/15 08:33:31;;;;;;;0.20;0.20;;;;;;;;;;5027596;28;20246;-78
2024/02/15 08:35:58;;;;;;;0.30;0.30;;;;;;;;;;5046071;28;20235;-78
2024/02/15 08:38:25;;;;;;;0.30;0.30;;;;;;;;;;5044907;28;20773;-79
2024/02/15 08:40:51;;;;;;;0.30;0.30;;;;;;;;;;5056829;28;20223;-76
2024/02/15 08:43:18;;;;;;;0.30;0.30;;;;;;;;;;5027834;28;20230;-79
2024/02/15 08:45:45;;;;;;;1.17;1.17;;;;;;;;;;5026542;28;20223;-76
2024/02/15 08:48:11;;;;;;;0.30;0.30;;;;;;;;;;5043268;28;20707;-78
2024/02/15 08:50:41;;;;;;;0.30;0.30;;;;;;;;;;5044680;28;20223;-79
2024/02/15 08:53:08;;;;;;;0.30;0.30;;;;;;;;;;5026343;28;20286;-79
2024/02/15 08:55:35;;;;;;;0.30;0.30;;;;;;;;;;5044581;28;20234;-78
2024/02/15 08:58:03;;;;;;;0.30;0.30;;;;;;;;;;5025715;28;20326;-80
2024/02/15 09:00:30;;;;;;;0.40;0.40;;;;;;;;;;5027379;28;20223;-78
2024/02/15 09:02:57;;;;;;;0.73;0.73;;;;;;;;;;5025987;28;20247;-78
2024/02/15 09:05:24;;;;;;;0.30;0.30;;;;;;;;;;5027408;28;20349;-78
2024/02/15 09:07:51;;;;;;;0.40;0.40;;;;;;;;;;5026545;28;20239;-78
2024/02/15 09:10:18;;;;;;;0.87;0.87;;;;;;;;;;5031039;28;20842;-78
2024/02/15 09:12:48;;;;;;;0.27;0.27;;;;;;;;;;5025462;28;20234;-79
2024/02/15 09:15:15;;;;;;;0.40;0.40;;;;;;;;;;5044196;28;20231;-78
2024/02/15 09:17:45;;;;;;;0.30;0.30;;;;;;;;;;5025292;28;20220;-76
2024/02/15 09:20:20;;;;;;;0.40;0.40;;;;;;;;;;5043376;28;20336;-77
2024/02/15 09:22:51;;;;;;;0.30;0.30;;;;;;;;;;5043414;28;20273;-76
2024/02/15 09:25:18;;;;;;;0.30;0.30;;;;;;;;;;5026505;28;21453;-77
2024/02/15 09:28:06;;;;;;;0.30;0.30;;;;;;;;;;5062550;28;20718;-78
2024/02/15 09:30:35;;;;;;;0.20;0.20;;;;;;;;;;5063132;28;20223;-76
2024/02/15 09:33:04;;;;;;;0.43;0.43;;;;;;;;;;5062982;28;20238;-77
2024/02/15 09:35:32;;;;;;;0.30;0.30;;;;;;;;;;5061949;28;21032;-80
2024/02/15 09:37:58;;;;;;;0.37;0.37;;;;;;;;;;5064320;28;20223;-79
2024/02/15 09:40:29;;;;;;;0.30;0.30;;;;;;;;;;5063487;28;20229;-77
2024/02/15 09:42:56;;;;;;;0.40;0.40;;;;;;;;;;5047680;28;20301;-76
2024/02/15 09:45:24;;;;;;;0.50;0.50;;;;;;;;;;5048200;28;20249;-77
2024/02/15 09:47:53;;;;;;;0.93;0.87;;;;;;;;;;5060768;28;20262;-76
2024/02/15 09:50:19;;;;;;;0.30;0.30;;;;;;;;;;5047817;28;20226;-76
2024/02/15 09:52:51;;;;;;;0.40;0.40;;;;;;;;;;5063178;28;20698;-77
2024/02/15 09:55:18;;;;;;;0.40;0.40;;;;;;;;;;5053094;28;20306;-77
2024/02/15 09:57:46;;;;;;;0.30;0.30;;;;;;;;;;5047431;28;20226;-77
2024/02/15 10:00:15;;;;;;;0.30;0.30;;;;;;;;;;5064132;28;20222;-76
2024/02/15 10:02:44;;;;;;;2.10;1.03;;;;;;;;;;5065295;28;20235;-76
2024/02/15 10:05:12;;;;;;;0.40;0.40;;;;;;;;;;5057871;28;20223;-77
2024/02/15 10:07:40;;;;;;;0.40;0.40;;;;;;;;;;5064188;28;20254;-76
2024/02/15 10:10:27;;;;;;;0.30;0.30;;;;;;;;;;5053749;28;20223;-77
2024/02/15 10:12:55;;;;;;;0.30;0.30;;;;;;;;;;5052011;28;20219;-77
2024/02/15 10:15:30;;;;;;;0.30;0.30;;;;;;;;;;5064609;28;20226;-77
2024/02/15 10:17:59;;;;;;;0.30;0.30;;;;;;;;;;5063671;28;20226;-77
2024/02/15 10:20:27;;;;;;;0.40;0.40;;;;;;;;;;5049060;28;20272;-77
2024/02/15 10:22:59;;;;;;;0.40;0.40;;;;;;;;;;5064242;28;20230;-77
2024/02/15 10:25:27;;;;;;;0.30;0.30;;;;;;;;;;5046521;28;20235;-77
2024/02/15 10:28:06;;;;;;;0.60;0.60;;;;;;;;;;5061390;28;20239;-77
2024/02/15 10:30:37;;;;;;;0.30;0.30;;;;;;;;;;5062699;28;20226;-77
2024/02/15 10:33:07;;;;;;;0.30;0.30;;;;;;;;;;5062983;28;20509;-77
2024/02/15 10:35:34;;;;;;;0.40;0.40;;;;;;;;;;5061720;28;20230;-77
2024/02/15 10:38:13;;;;;;;0.50;0.50;;;;;;;;;;5062074;28;20245;-77
2024/02/15 10:40:43;;;;;;;0.20;0.20;;;;;;;;;;5047692;28;20230;-77
2024/02/15 10:43:13;;;;;;;0.40;0.40;;;;;;;;;;5062542;28;20231;-77
2024/02/15 10:45:40;;;;;;;0.40;0.40;;;;;;;;;;5046085;28;20321;-77
2024/02/15 10:48:10;;;;;;;0.50;0.50;;;;;;;;;;5061542;28;20230;-77
2024/02/15 10:50:41;;;;;;;0.30;0.30;;;;;;;;;;5062102;28;20230;-77
2024/02/15 10:53:18;;;;;;;0.33;0.33;;;;;;;;;;5062233;28;20249;-77
2024/02/15 10:56:17;;;;;;;0.30;0.30;;;;;;;;;;5061908;28;20227;-78
2024/02/15 10:58:50;;;;;;;0.30;0.30;;;;;;;;;;5045181;28;20707;-79
2024/02/15 11:01:17;;;;;;;0.30;0.30;;;;;;;;;;5061925;28;20226;-77
2024/02/15 11:03:56;;;;;;;0.57;0.57;;;;;;;;;;5046563;28;20579;-77
2024/02/15 11:06:24;;;;;;;0.30;0.30;;;;;;;;;;5045599;28;20604;-78
2024/02/15 11:08:51;;;;;;;0.40;0.40;;;;;;;;;;5050404;28;20716;-79
2024/02/15 11:11:19;;;;;;;0.80;0.80;;;;;;;;;;5057283;28;20591;-77
2024/02/15 11:13:48;;;;;;;0.50;0.50;;;;;;;;;;5060440;28;20230;-77
2024/02/15 11:16:39;;;;;;;0.30;0.30;;;;;;;;;;5060866;28;20281;-77
2024/02/15 11:19:06;;;;;;;1.77;1.20;;;;;;;;;;5061029;28;20288;-77
2024/02/15 11:21:56;;;;;;;0.50;0.50;;;;;;;;;;5060506;28;20230;-78
2024/02/15 11:24:27;;;;;;;0.40;0.40;;;;;;;;;;5061217;28;20214;-78
2024/02/15 11:27:03;;;;;;;0.30;0.30;;;;;;;;;;5061558;28;20231;-77
2024/02/15 11:29:51;;;;;;;0.30;0.30;;;;;;;;;;5059175;28;20237;-77
2024/02/15 11:32:56;;;;;;;0.70;0.60;;;;;;;;;;5061699;28;20218;-77
2024/02/15 11:35:24;;;;;;;0.30;0.30;;;;;;;;;;5031172;28;20226;-77
2024/02/15 11:37:58;;;;;;;0.50;0.50;;;;;;;;;;5046728;28;20238;-78
2024/02/15 11:40:29;;;;;;;0.30;0.30;;;;;;;;;;5060027;28;20226;-79
2024/02/15 11:43:01;;;;;;;0.30;0.30;;;;;;;;;;5061901;28;20230;-77
2024/02/15 11:45:41;;;;;;;0.30;0.30;;;;;;;;;;5063376;28;20309;-77
2024/02/15 11:48:10;;;;;;;0.30;0.30;;;;;;;;;;5062786;28;20349;-78
2024/02/15 11:50:40;;;;;;;0.52;0.52;;;;;;;;;;5053696;28;20220;-78
2024/02/15 11:53:09;;;;;;;0.38;0.38;;;;;;;;;;5056828;28;20223;-77
2024/02/15 11:55:38;;;;;;;0.40;0.40;;;;;;;;;;5061969;28;20301;-78
2024/02/15 12:20:34;;;;;;;0.50;0.50;;;;;;;;;;5060993;28;20694;-77
2024/02/15 12:23:00;;;;;;;0.30;0.30;;;;;;;;;;5060748;28;20306;-78
2024/02/15 12:25:27;;;;;;;0.30;0.30;;;;;;;;;;5050198;28;20305;-78
2024/02/15 12:27:59;;;;;;;0.20;0.20;;;;;;;;;;5049274;28;20242;-78
2024/02/15 12:30:33;;;;;;;1.27;0.75;;;;;;;;;;5060776;28;20230;-77
2024/02/15 12:33:10;;;;;;;0.30;0.30;;;;;;;;;;5044295;28;20314;-77
2024/02/15 12:35:38;;;;;;;0.30;0.30;;;;;;;;;;5059959;28;20322;-77
2024/02/15 12:38:05;;;;;;;0.65;0.65;;;;;;;;;;5043274;28;20315;-76
2024/02/15 12:40:33;;;;;;;0.30;0.30;;;;;;;;;;5044628;28;20306;-76
2024/02/15 12:43:00;;;;;;;0.40;0.40;;;;;;;;;;5061759;28;20548;-76
2024/02/15 12:45:30;;;;;;;0.70;0.70;;;;;;;;;;5060808;28;20230;-76
2024/02/15 12:47:57;;;;;;;0.40;0.40;;;;;;;;;;5052918;28;20233;-76
2024/02/15 12:50:29;;;;;;;0.30;0.30;;;;;;;;;;5060785;28;20281;-76
2024/02/15 12:53:01;;;;;;;0.30;0.30;;;;;;;;;;5060812;28;20233;-76
2024/02/15 12:55:36;;;;;;;2.15;0.75;;;;;;;;;;5061632;28;20218;-76
2024/02/15 12:58:13;;;;;;;0.30;0.30;;;;;;;;;;5047569;28;20222;-76
2024/02/15 13:00:40;;;;;;;0.30;0.30;;;;;;;;;;5051973;28;20237;-76
2024/02/15 13:03:09;;;;;;;0.43;0.43;;;;;;;;;;5062334;28;20235;-76
2024/02/15 13:05:37;;;;;;;0.40;0.40;;;;;;;;;;5061299;28;20254;-76
2024/02/15 13:08:13;;;;;;;1.02;1.02;;;;;;;;;;5061624;28;20250;-76
2024/02/15 13:10:40;;;;;;;1.52;0.50;;;;;;;;;;5062382;28;20305;-76
2024/02/15 13:13:09;;;;;;;0.47;0.47;;;;;;;;;;5049594;28;20773;-76
2024/02/15 13:15:37;;;;;;;0.30;0.30;;;;;;;;;;5049875;28;20223;-76
2024/02/15 13:18:05;;;;;;;0.47;0.47;;;;;;;;;;5062451;28;20728;-76
2024/02/15 13:20:33;;;;;;;0.30;0.30;;;;;;;;;;5050388;28;20245;-76
2024/02/15 13:23:14;;;;;;;0.40;0.40;;;;;;;;;;5050022;28;20235;-76
2024/02/15 13:25:45;;;;;;;0.40;0.40;;;;;;;;;;5063555;28;20234;-76
2024/02/15 13:28:12;;;;;;;3.03;0.55;;;;;;;;;;5064558;28;20691;-76
2024/02/15 13:30:41;;;;;;;0.50;0.50;;;;;;;;;;5063574;28;20222;-76
2024/02/15 13:33:08;;;;;;;0.60;0.43;;;;;;;;;;5063265;28;20229;-76
2024/02/15 13:35:36;;;;;;;0.30;0.30;;;;;;;;;;5052069;28;20313;-76
2024/02/15 13:38:02;;;;;;;0.38;0.38;;;;;;;;;;5063930;28;20303;-77
2024/02/15 13:40:31;;;;;;;0.30;0.30;;;;;;;;;;5063036;28;20748;-76
2024/02/15 13:42:59;;;;;;;0.30;0.30;;;;;;;;;;5046260;28;20227;-76
2024/02/15 13:45:32;;;;;;;0.40;0.40;;;;;;;;;;5064348;28;20226;-77
2024/02/15 13:48:00;;;;;;;0.32;0.32;;;;;;;;;;5048597;28;20233;-76
2024/02/15 13:50:29;;;;;;;0.30;0.30;;;;;;;;;;5063756;28;20309;-76
2024/02/15 13:52:58;;;;;;;0.30;0.30;;;;;;;;;;5063693;28;20226;-76
2024/02/15 13:55:25;;;;;;;0.30;0.30;;;;;;;;;;5061532;28;20216;-76
2024/02/15 13:57:53;;;;;;;0.65;0.65;;;;;;;;;;5062918;28;20241;-76
2024/02/15 14:00:29;;;;;;;0.30;0.30;;;;;;;;;;5062584;28;20230;-76
2024/02/15 14:02:58;;;;;;;0.30;0.30;;;;;;;;;;5062503;28;20234;-77
2024/02/15 14:05:29;;;;;;;0.30;0.30;;;;;;;;;;5062850;28;20225;-77
2024/02/15 14:08:00;;;;;;;0.30;0.30;;;;;;;;;;5061551;28;20251;-77
2024/02/15 14:10:32;;;;;;;0.30;0.30;;;;;;;;;;5063487;28;20234;-77
2024/02/15 14:12:59;;;;;;;0.75;0.75;;;;;;;;;;5045844;28;20232;-77
2024/02/15 14:15:25;;;;;;;0.68;0.68;;;;;;;;;;5063860;28;20238;-77
2024/02/15 14:17:53;;;;;;;0.65;0.65;;;;;;;;;;5047421;28;20323;-77
2024/02/15 14:20:21;;;;;;;0.80;0.65;;;;;;;;;;5062823;28;20298;-76
2024/02/15 14:22:55;;;;;;;0.30;0.30;;;;;;;;;;5064264;28;20226;-78
2024/02/15 14:25:25;;;;;;;0.30;0.30;;;;;;;;;;5062598;28;20222;-78
2024/02/15 14:27:56;;;;;;;0.30;0.30;;;;;;;;;;5063486;28;20235;-77
2024/02/15 14:33:11;;;;;;;0.40;0.40;;;;;;;;;;5060960;28;20257;-77
2024/02/15 14:35:39;;;;;;;0.30;0.30;;;;;;;;;;5062048;28;20235;-77
2024/02/15 14:38:08;;;;;;;0.30;0.30;;;;;;;;;;5058130;28;20223;-77
2024/02/15 14:40:37;;;;;;;0.30;0.30;;;;;;;;;;5063610;28;20261;-77
2024/02/15 14:43:13;;;;;;;0.30;0.30;;;;;;;;;;5048046;28;20692;-77
2024/02/15 14:45:43;;;;;;;0.50;0.50;;;;;;;;;;5060351;28;20695;-78
2024/02/15 14:48:10;;;;;;;0.30;0.30;;;;;;;;;;5061297;28;20233;-77
2024/02/15 14:50:36;;;;;;;0.30;0.30;;;;;;;;;;5061878;28;20676;-78
2024/02/15 14:53:03;;;;;;;0.30;0.30;;;;;;;;;;5061202;28;20575;-77
2024/02/15 14:55:33;;;;;;;0.30;0.30;;;;;;;;;;5045277;28;20231;-77
2024/02/15 14:58:00;;;;;;;0.30;0.30;;;;;;;;;;5044756;28;20641;-77
2024/02/15 15:00:29;;;;;;;0.30;0.30;;;;;;;;;;5052412;28;20219;-77
2024/02/15 15:03:03;;;;;;;0.30;0.30;;;;;;;;;;5062442;28;20242;-77
2024/02/15 15:13:47;;;;;;;0.30;0.30;;;;;;;;;;5063821;28;20587;-77
2024/02/15 15:16:17;;;;;;;0.40;0.40;;;;;;;;;;5059685;28;20704;-77
2024/02/15 15:18:47;;;;;;;0.30;0.30;;;;;;;;;;5045816;28;20642;-79
2024/02/15 15:21:18;;;;;;;0.30;0.30;;;;;;;;;;5064676;28;20838;-77
2024/02/15 15:23:45;;;;;;;0.32;0.32;;;;;;;;;;5062291;28;20229;-79
2024/02/15 15:26:19;;;;;;;0.30;0.30;;;;;;;;;;5050010;28;20237;-77
2024/02/15 15:28:47;;;;;;;0.30;0.30;;;;;;;;;;5062390;28;20280;-76
2024/02/15 15:31:14;;;;;;;0.43;0.43;;;;;;;;;;5061009;28;20657;-76
2024/02/15 15:33:41;;;;;;;0.30;0.30;;;;;;;;;;5062300;28;20219;-76
2024/02/15 15:36:10;;;;;;;0.30;0.30;;;;;;;;;;5060894;28;20235;-76
2024/02/15 15:38:36;;;;;;;0.38;0.38;;;;;;;;;;5061113;28;20215;-77